sensor_id;sensor_type;location;lat;lon;timestamp;temperature;humidity
21033;DHT22;10675;47.976;7.824;2023-02-28T00:00:20;1.90;72.00
21033;DHT22;10675;47.976;7.824;2023-02-28T00:02:46;1.80;72.20
21033;DHT22;10675;47.976;7.824;2023-02-28T00:05:13;1.90;72.80
21033;DHT22;10675;47.976;7.824;2023-02-28T00:07:40;1.80;72.30
21033;DHT22;10675;47.976;7.824;2023-02-28T00:10:08;1.90;72.90
21033;DHT22;10675;47.976;7.824;2023-02-28T00:12:34;1.80;72.80
21033;DHT22;10675;47.976;7.824;2023-02-28T00:15:01;1.80;73.70
21033;DHT22;10675;47.976;7.824;2023-02-28T00:17:27;1.80;73.70
21033;DHT22;10675;47.976;7.824;2023-02-28T00:19:52;1.80;73.00
21033;DHT22;10675;47.976;7.824;2023-02-28T00:22:19;1.80;72.50
21033;DHT22;10675;47.976;7.824;2023-02-28T00:24:45;1.80;72.90
21033;DHT22;10675;47.976;7.824;2023-02-28T00:27:11;1.80;73.50
21033;DHT22;10675;47.976;7.824;2023-02-28T00:29:37;1.80;73.50
21033;DHT22;10675;47.976;7.824;2023-02-28T00:32:03;1.80;73.40
21033;DHT22;10675;47.976;7.824;2023-02-28T00:34:29;1.80;73.70
21033;DHT22;10675;47.976;7.824;2023-02-28T00:36:54;1.80;73.50
21033;DHT22;10675;47.976;7.824;2023-02-28T00:39:20;1.80;73.30
21033;DHT22;10675;47.976;7.824;2023-02-28T00:41:45;1.80;73.90
21033;DHT22;10675;47.976;7.824;2023-02-28T00:44:11;1.80;73.50
21033;DHT22;10675;47.976;7.824;2023-02-28T00:46:37;1.80;73.20
21033;DHT22;10675;47.976;7.824;2023-02-28T00:49:02;1.80;73.20
21033;DHT22;10675;47.976;7.824;2023-02-28T00:51:28;1.80;73.70
21033;DHT22;10675;47.976;7.824;2023-02-28T00:53:54;1.70;74.00
21033;DHT22;10675;47.976;7.824;2023-02-28T00:56:19;1.70;73.40
21033;DHT22;10675;47.976;7.824;2023-02-28T00:58:45;1.70;73.60
21033;DHT22;10675;47.976;7.824;2023-02-28T01:01:10;1.70;74.40
21033;DHT22;10675;47.976;7.824;2023-02-28T01:03:36;1.70;74.80
21033;DHT22;10675;47.976;7.824;2023-02-28T01:06:02;1.70;74.00
21033;DHT22;10675;47.976;7.824;2023-02-28T01:08:27;1.80;74.40
21033;DHT22;10675;47.976;7.824;2023-02-28T01:10:53;1.70;73.90
21033;DHT22;10675;47.976;7.824;2023-02-28T01:13:19;1.70;74.40
21033;DHT22;10675;47.976;7.824;2023-02-28T01:15:53;1.70;74.30
21033;DHT22;10675;47.976;7.824;2023-02-28T01:18:21;1.70;74.40
21033;DHT22;10675;47.976;7.824;2023-02-28T01:20:47;1.70;74.80
21033;DHT22;10675;47.976;7.824;2023-02-28T01:23:13;1.70;74.80
21033;DHT22;10675;47.976;7.824;2023-02-28T01:25:38;1.60;74.70
21033;DHT22;10675;47.976;7.824;2023-02-28T01:28:05;1.60;75.10
21033;DHT22;10675;47.976;7.824;2023-02-28T01:30:31;1.60;75.70
21033;DHT22;10675;47.976;7.824;2023-02-28T01:32:57;1.70;76.50
21033;DHT22;10675;47.976;7.824;2023-02-28T01:35:22;1.70;75.30
21033;DHT22;10675;47.976;7.824;2023-02-28T01:37:48;1.70;74.90
21033;DHT22;10675;47.976;7.824;2023-02-28T01:40:14;1.70;75.50
21033;DHT22;10675;47.976;7.824;2023-02-28T01:42:40;1.70;76.70
21033;DHT22;10675;47.976;7.824;2023-02-28T01:45:28;1.80;75.40
21033;DHT22;10675;47.976;7.824;2023-02-28T01:48:07;1.70;75.20
21033;DHT22;10675;47.976;7.824;2023-02-28T01:50:37;1.80;76.10
21033;DHT22;10675;47.976;7.824;2023-02-28T01:53:06;1.80;76.80
21033;DHT22;10675;47.976;7.824;2023-02-28T01:55:32;1.70;76.70
21033;DHT22;10675;47.976;7.824;2023-02-28T01:58:00;1.70;76.60
21033;DHT22;10675;47.976;7.824;2023-02-28T02:00:29;1.70;76.40
21033;DHT22;10675;47.976;7.824;2023-02-28T02:03:01;1.70;76.60
21033;DHT22;10675;47.976;7.824;2023-02-28T02:05:30;1.80;75.90
21033;DHT22;10675;47.976;7.824;2023-02-28T02:08:01;1.70;76.10
21033;DHT22;10675;47.976;7.824;2023-02-28T02:10:33;1.80;76.20
21033;DHT22;10675;47.976;7.824;2023-02-28T02:16:14;1.80;76.40
21033;DHT22;10675;47.976;7.824;2023-02-28T02:19:14;1.70;76.80
21033;DHT22;10675;47.976;7.824;2023-02-28T02:22:18;1.70;76.60
21033;DHT22;10675;47.976;7.824;2023-02-28T02:36:19;1.50;76.90
21033;DHT22;10675;47.976;7.824;2023-02-28T02:39:02;1.50;76.80
21033;DHT22;10675;47.976;7.824;2023-02-28T02:44:26;1.50;77.80
21033;DHT22;10675;47.976;7.824;2023-02-28T02:46:58;1.60;77.60
21033;DHT22;10675;47.976;7.824;2023-02-28T02:49:31;1.50;77.70
21033;DHT22;10675;47.976;7.824;2023-02-28T02:52:01;1.50;77.70
21033;DHT22;10675;47.976;7.824;2023-02-28T02:54:30;1.50;77.70
21033;DHT22;10675;47.976;7.824;2023-02-28T02:57:00;1.50;78.00
21033;DHT22;10675;47.976;7.824;2023-02-28T02:59:28;1.60;78.20
21033;DHT22;10675;47.976;7.824;2023-02-28T03:01:58;1.60;77.90
21033;DHT22;10675;47.976;7.824;2023-02-28T03:04:27;1.50;77.80
21033;DHT22;10675;47.976;7.824;2023-02-28T03:06:54;1.40;78.10
21033;DHT22;10675;47.976;7.824;2023-02-28T03:09:21;1.40;78.30
21033;DHT22;10675;47.976;7.824;2023-02-28T03:11:47;1.50;78.30
21033;DHT22;10675;47.976;7.824;2023-02-28T03:19:58;1.30;78.80
21033;DHT22;10675;47.976;7.824;2023-02-28T03:22:51;1.30;79.10
21033;DHT22;10675;47.976;7.824;2023-02-28T03:28:15;1.30;78.70
21033;DHT22;10675;47.976;7.824;2023-02-28T03:33:35;1.30;79.80
21033;DHT22;10675;47.976;7.824;2023-02-28T03:36:08;1.20;79.50
21033;DHT22;10675;47.976;7.824;2023-02-28T03:38:50;1.30;79.40
21033;DHT22;10675;47.976;7.824;2023-02-28T03:41:44;1.40;79.40
21033;DHT22;10675;47.976;7.824;2023-02-28T03:44:27;1.40;79.10
21033;DHT22;10675;47.976;7.824;2023-02-28T03:47:03;1.40;79.20
21033;DHT22;10675;47.976;7.824;2023-02-28T03:49:35;1.40;80.70
21033;DHT22;10675;47.976;7.824;2023-02-28T03:52:06;1.20;79.80
21033;DHT22;10675;47.976;7.824;2023-02-28T03:54:36;1.20;80.20
21033;DHT22;10675;47.976;7.824;2023-02-28T03:57:08;1.20;80.80
21033;DHT22;10675;47.976;7.824;2023-02-28T03:59:43;1.20;81.40
21033;DHT22;10675;47.976;7.824;2023-02-28T04:02:09;1.30;81.00
21033;DHT22;10675;47.976;7.824;2023-02-28T04:04:35;1.30;81.20
21033;DHT22;10675;47.976;7.824;2023-02-28T04:07:08;1.40;81.70
21033;DHT22;10675;47.976;7.824;2023-02-28T04:09:36;1.30;82.20
21033;DHT22;10675;47.976;7.824;2023-02-28T04:12:02;1.30;82.30
21033;DHT22;10675;47.976;7.824;2023-02-28T04:14:27;1.30;82.00
21033;DHT22;10675;47.976;7.824;2023-02-28T04:16:53;1.20;81.40
21033;DHT22;10675;47.976;7.824;2023-02-28T04:19:19;1.30;81.90
21033;DHT22;10675;47.976;7.824;2023-02-28T04:21:50;1.40;82.00
21033;DHT22;10675;47.976;7.824;2023-02-28T04:24:22;1.20;81.90
21033;DHT22;10675;47.976;7.824;2023-02-28T04:26:50;1.30;82.30
21033;DHT22;10675;47.976;7.824;2023-02-28T04:29:25;1.30;82.40
21033;DHT22;10675;47.976;7.824;2023-02-28T04:31:51;1.20;82.80
21033;DHT22;10675;47.976;7.824;2023-02-28T04:34:18;1.20;82.70
21033;DHT22;10675;47.976;7.824;2023-02-28T04:36:44;1.20;83.30
21033;DHT22;10675;47.976;7.824;2023-02-28T04:39:11;1.30;83.80
21033;DHT22;10675;47.976;7.824;2023-02-28T04:41:37;1.30;84.30
21033;DHT22;10675;47.976;7.824;2023-02-28T04:44:03;1.20;84.80
21033;DHT22;10675;47.976;7.824;2023-02-28T04:46:28;1.00;86.30
21033;DHT22;10675;47.976;7.824;2023-02-28T04:48:55;1.00;87.40
21033;DHT22;10675;47.976;7.824;2023-02-28T04:51:21;0.90;88.50
21033;DHT22;10675;47.976;7.824;2023-02-28T04:53:47;0.90;88.50
21033;DHT22;10675;47.976;7.824;2023-02-28T04:56:15;0.90;88.70
21033;DHT22;10675;47.976;7.824;2023-02-28T04:58:41;0.90;89.60
21033;DHT22;10675;47.976;7.824;2023-02-28T05:03:45;0.90;89.30
21033;DHT22;10675;47.976;7.824;2023-02-28T05:06:11;0.90;90.10
21033;DHT22;10675;47.976;7.824;2023-02-28T05:08:38;0.90;90.30
21033;DHT22;10675;47.976;7.824;2023-02-28T05:11:05;0.90;90.30
21033;DHT22;10675;47.976;7.824;2023-02-28T05:13:31;0.80;90.60
21033;DHT22;10675;47.976;7.824;2023-02-28T05:15:57;0.80;90.80
21033;DHT22;10675;47.976;7.824;2023-02-28T05:18:22;0.80;90.70
21033;DHT22;10675;47.976;7.824;2023-02-28T05:20:48;0.70;91.00
21033;DHT22;10675;47.976;7.824;2023-02-28T05:23:22;0.60;91.00
21033;DHT22;10675;47.976;7.824;2023-02-28T05:25:48;0.70;91.30
21033;DHT22;10675;47.976;7.824;2023-02-28T05:28:13;0.70;91.50
21033;DHT22;10675;47.976;7.824;2023-02-28T05:30:39;0.70;92.00
21033;DHT22;10675;47.976;7.824;2023-02-28T05:33:05;0.70;92.30
21033;DHT22;10675;47.976;7.824;2023-02-28T05:35:30;0.60;92.80
21033;DHT22;10675;47.976;7.824;2023-02-28T05:37:56;0.80;93.10
21033;DHT22;10675;47.976;7.824;2023-02-28T05:40:22;0.60;93.00
21033;DHT22;10675;47.976;7.824;2023-02-28T05:42:48;0.60;93.60
21033;DHT22;10675;47.976;7.824;2023-02-28T05:45:15;0.70;93.70
21033;DHT22;10675;47.976;7.824;2023-02-28T05:47:40;0.60;94.20
21033;DHT22;10675;47.976;7.824;2023-02-28T05:50:06;0.40;95.10
21033;DHT22;10675;47.976;7.824;2023-02-28T05:52:32;0.50;95.60
21033;DHT22;10675;47.976;7.824;2023-02-28T05:54:58;0.50;96.30
21033;DHT22;10675;47.976;7.824;2023-02-28T05:57:24;0.50;96.90
21033;DHT22;10675;47.976;7.824;2023-02-28T05:59:49;0.40;97.40
21033;DHT22;10675;47.976;7.824;2023-02-28T06:02:16;0.30;98.20
21033;DHT22;10675;47.976;7.824;2023-02-28T06:04:43;0.30;99.30
21033;DHT22;10675;47.976;7.824;2023-02-28T06:07:09;0.20;99.90
21033;DHT22;10675;47.976;7.824;2023-02-28T06:09:35;0.10;99.90
21033;DHT22;10675;47.976;7.824;2023-02-28T06:12:03;0.20;99.90
21033;DHT22;10675;47.976;7.824;2023-02-28T06:14:31;0.20;99.90
21033;DHT22;10675;47.976;7.824;2023-02-28T06:16:58;0.10;99.90
21033;DHT22;10675;47.976;7.824;2023-02-28T06:19:24;0.10;99.90
21033;DHT22;10675;47.976;7.824;2023-02-28T06:21:51;0.00;99.90
21033;DHT22;10675;47.976;7.824;2023-02-28T06:24:18;-0.10;99.90
21033;DHT22;10675;47.976;7.824;2023-02-28T06:26:44;0.00;99.90
21033;DHT22;10675;47.976;7.824;2023-02-28T06:29:09;0.00;99.90
21033;DHT22;10675;47.976;7.824;2023-02-28T06:31:35;0.00;99.90
21033;DHT22;10675;47.976;7.824;2023-02-28T06:34:01;0.10;99.90
21033;DHT22;10675;47.976;7.824;2023-02-28T06:36:26;0.10;99.90
21033;DHT22;10675;47.976;7.824;2023-02-28T06:38:52;0.10;99.90
21033;DHT22;10675;47.976;7.824;2023-02-28T06:41:21;0.10;99.90
21033;DHT22;10675;47.976;7.824;2023-02-28T06:43:47;0.30;99.90
21033;DHT22;10675;47.976;7.824;2023-02-28T06:46:14;0.30;99.90
21033;DHT22;10675;47.976;7.824;2023-02-28T06:48:40;0.10;99.90
21033;DHT22;10675;47.976;7.824;2023-02-28T06:51:09;0.10;99.90
21033;DHT22;10675;47.976;7.824;2023-02-28T06:53:35;0.10;99.90
21033;DHT22;10675;47.976;7.824;2023-02-28T06:56:08;0.10;99.90
21033;DHT22;10675;47.976;7.824;2023-02-28T06:58:34;0.20;99.90
21033;DHT22;10675;47.976;7.824;2023-02-28T07:01:01;0.20;99.90
21033;DHT22;10675;47.976;7.824;2023-02-28T07:03:26;0.10;99.90
21033;DHT22;10675;47.976;7.824;2023-02-28T07:05:52;0.10;99.90
21033;DHT22;10675;47.976;7.824;2023-02-28T07:08:17;0.30;99.90
21033;DHT22;10675;47.976;7.824;2023-02-28T07:10:43;0.30;99.90
21033;DHT22;10675;47.976;7.824;2023-02-28T07:13:10;0.30;99.90
21033;DHT22;10675;47.976;7.824;2023-02-28T07:15:36;0.30;99.90
21033;DHT22;10675;47.976;7.824;2023-02-28T07:18:02;0.30;99.90
21033;DHT22;10675;47.976;7.824;2023-02-28T07:20:29;0.30;99.90
21033;DHT22;10675;47.976;7.824;2023-02-28T07:22:55;0.30;99.90
21033;DHT22;10675;47.976;7.824;2023-02-28T07:25:28;0.40;99.90
21033;DHT22;10675;47.976;7.824;2023-02-28T07:27:54;0.40;99.90
21033;DHT22;10675;47.976;7.824;2023-02-28T07:30:20;-0.40;99.90
21033;DHT22;10675;47.976;7.824;2023-02-28T07:32:46;0.30;99.90
21033;DHT22;10675;47.976;7.824;2023-02-28T07:35:12;0.40;99.90
21033;DHT22;10675;47.976;7.824;2023-02-28T07:37:37;0.40;99.90
21033;DHT22;10675;47.976;7.824;2023-02-28T07:40:04;0.50;99.90
21033;DHT22;10675;47.976;7.824;2023-02-28T07:42:34;0.60;99.90
21033;DHT22;10675;47.976;7.824;2023-02-28T07:45:00;0.60;99.90
21033;DHT22;10675;47.976;7.824;2023-02-28T07:47:26;0.80;99.90
21033;DHT22;10675;47.976;7.824;2023-02-28T07:49:51;0.90;99.90
21033;DHT22;10675;47.976;7.824;2023-02-28T07:52:17;1.00;99.90
21033;DHT22;10675;47.976;7.824;2023-02-28T07:54:43;1.00;99.90
21033;DHT22;10675;47.976;7.824;2023-02-28T07:57:08;0.90;99.90
21033;DHT22;10675;47.976;7.824;2023-02-28T07:59:34;1.00;99.90
21033;DHT22;10675;47.976;7.824;2023-02-28T08:01:59;1.20;99.90
21033;DHT22;10675;47.976;7.824;2023-02-28T08:04:25;1.30;99.90
21033;DHT22;10675;47.976;7.824;2023-02-28T08:06:51;1.30;99.90
21033;DHT22;10675;47.976;7.824;2023-02-28T08:09:18;1.30;99.10
21033;DHT22;10675;47.976;7.824;2023-02-28T08:11:44;1.30;98.70
21033;DHT22;10675;47.976;7.824;2023-02-28T08:14:09;1.40;98.70
21033;DHT22;10675;47.976;7.824;2023-02-28T08:16:35;1.60;98.50
21033;DHT22;10675;47.976;7.824;2023-02-28T08:19:01;1.60;98.00
21033;DHT22;10675;47.976;7.824;2023-02-28T08:21:26;1.60;97.30
21033;DHT22;10675;47.976;7.824;2023-02-28T08:23:52;1.60;97.30
21033;DHT22;10675;47.976;7.824;2023-02-28T08:26:18;1.50;96.90
21033;DHT22;10675;47.976;7.824;2023-02-28T08:28:44;1.60;97.00
21033;DHT22;10675;47.976;7.824;2023-02-28T08:31:11;1.80;96.60
21033;DHT22;10675;47.976;7.824;2023-02-28T08:33:38;1.70;96.10
21033;DHT22;10675;47.976;7.824;2023-02-28T08:36:05;1.80;95.80
21033;DHT22;10675;47.976;7.824;2023-02-28T08:38:31;1.60;96.80
21033;DHT22;10675;47.976;7.824;2023-02-28T08:40:58;1.80;96.60
21033;DHT22;10675;47.976;7.824;2023-02-28T08:43:24;1.80;95.70
21033;DHT22;10675;47.976;7.824;2023-02-28T08:45:55;1.60;95.70
21033;DHT22;10675;47.976;7.824;2023-02-28T08:48:22;1.70;95.60
21033;DHT22;10675;47.976;7.824;2023-02-28T08:51:02;1.60;95.50
21033;DHT22;10675;47.976;7.824;2023-02-28T08:53:29;1.80;95.20
21033;DHT22;10675;47.976;7.824;2023-02-28T08:56:09;1.70;95.30
21033;DHT22;10675;47.976;7.824;2023-02-28T08:58:35;1.90;94.90
21033;DHT22;10675;47.976;7.824;2023-02-28T09:01:10;2.00;94.40
21033;DHT22;10675;47.976;7.824;2023-02-28T09:03:37;2.20;93.90
21033;DHT22;10675;47.976;7.824;2023-02-28T09:06:03;2.30;93.30
21033;DHT22;10675;47.976;7.824;2023-02-28T09:08:30;2.50;93.30
21033;DHT22;10675;47.976;7.824;2023-02-28T09:10:56;2.70;92.30
21033;DHT22;10675;47.976;7.824;2023-02-28T09:13:24;2.70;90.90
21033;DHT22;10675;47.976;7.824;2023-02-28T09:15:49;2.90;90.30
21033;DHT22;10675;47.976;7.824;2023-02-28T09:18:15;3.20;88.90
21033;DHT22;10675;47.976;7.824;2023-02-28T09:20:42;3.50;89.10
21033;DHT22;10675;47.976;7.824;2023-02-28T09:23:09;3.90;86.80
21033;DHT22;10675;47.976;7.824;2023-02-28T09:25:35;4.00;85.70
21033;DHT22;10675;47.976;7.824;2023-02-28T09:28:01;4.00;85.20
21033;DHT22;10675;47.976;7.824;2023-02-28T09:30:27;4.10;85.40
21033;DHT22;10675;47.976;7.824;2023-02-28T09:32:52;4.40;88.50
21033;DHT22;10675;47.976;7.824;2023-02-28T09:35:19;4.60;84.50
21033;DHT22;10675;47.976;7.824;2023-02-28T09:37:46;4.70;83.90
21033;DHT22;10675;47.976;7.824;2023-02-28T09:40:12;4.80;82.80
21033;DHT22;10675;47.976;7.824;2023-02-28T09:42:40;4.80;81.70
21033;DHT22;10675;47.976;7.824;2023-02-28T09:47:55;5.00;80.90
21033;DHT22;10675;47.976;7.824;2023-02-28T09:50:43;5.00;80.10
21033;DHT22;10675;47.976;7.824;2023-02-28T09:56:03;5.00;80.60
21033;DHT22;10675;47.976;7.824;2023-02-28T09:58:47;4.90;80.20
21033;DHT22;10675;47.976;7.824;2023-02-28T10:01:37;4.60;80.10
21033;DHT22;10675;47.976;7.824;2023-02-28T10:07:24;4.40;81.30
21033;DHT22;10675;47.976;7.824;2023-02-28T10:09:57;4.40;81.00
21033;DHT22;10675;47.976;7.824;2023-02-28T10:12:24;4.20;80.30
21033;DHT22;10675;47.976;7.824;2023-02-28T10:14:52;4.10;81.60
21033;DHT22;10675;47.976;7.824;2023-02-28T10:17:22;4.20;81.30
21033;DHT22;10675;47.976;7.824;2023-02-28T10:22:22;4.40;81.10
21033;DHT22;10675;47.976;7.824;2023-02-28T10:24:54;4.70;80.90
21033;DHT22;10675;47.976;7.824;2023-02-28T10:27:31;4.80;79.80
21033;DHT22;10675;47.976;7.824;2023-02-28T10:30:00;4.60;79.30
21033;DHT22;10675;47.976;7.824;2023-02-28T10:32:32;4.70;80.00
21033;DHT22;10675;47.976;7.824;2023-02-28T10:35:18;5.20;81.10
21033;DHT22;10675;47.976;7.824;2023-02-28T10:37:50;5.50;78.40
21033;DHT22;10675;47.976;7.824;2023-02-28T10:45:37;5.30;76.80
21033;DHT22;10675;47.976;7.824;2023-02-28T10:50:43;5.50;77.00
21033;DHT22;10675;47.976;7.824;2023-02-28T10:53:24;5.80;77.70
21033;DHT22;10675;47.976;7.824;2023-02-28T10:58:50;5.80;74.40
21033;DHT22;10675;47.976;7.824;2023-02-28T11:01:18;5.20;75.40
21033;DHT22;10675;47.976;7.824;2023-02-28T11:03:45;5.20;76.80
21033;DHT22;10675;47.976;7.824;2023-02-28T11:06:20;5.20;76.80
21033;DHT22;10675;47.976;7.824;2023-02-28T11:08:59;5.20;76.50
21033;DHT22;10675;47.976;7.824;2023-02-28T11:11:27;5.40;76.40
21033;DHT22;10675;47.976;7.824;2023-02-28T11:13:56;5.60;75.90
21033;DHT22;10675;47.976;7.824;2023-02-28T11:16:35;5.80;76.20
21033;DHT22;10675;47.976;7.824;2023-02-28T11:19:04;6.00;75.00
21033;DHT22;10675;47.976;7.824;2023-02-28T11:21:36;6.10;75.00
21033;DHT22;10675;47.976;7.824;2023-02-28T11:24:33;6.00;74.70
21033;DHT22;10675;47.976;7.824;2023-02-28T11:26:59;6.20;74.90
21033;DHT22;10675;47.976;7.824;2023-02-28T11:29:27;5.90;73.60
21033;DHT22;10675;47.976;7.824;2023-02-28T11:34:29;5.10;76.20
21033;DHT22;10675;47.976;7.824;2023-02-28T11:36:57;4.90;76.70
21033;DHT22;10675;47.976;7.824;2023-02-28T11:39:24;4.70;77.20
21033;DHT22;10675;47.976;7.824;2023-02-28T11:42:11;4.90;77.50
21033;DHT22;10675;47.976;7.824;2023-02-28T11:53:50;5.40;75.90
21033;DHT22;10675;47.976;7.824;2023-02-28T11:58:53;5.10;76.60
21033;DHT22;10675;47.976;7.824;2023-02-28T12:06:57;5.00;77.00
21033;DHT22;10675;47.976;7.824;2023-02-28T12:09:46;5.10;77.00
21033;DHT22;10675;47.976;7.824;2023-02-28T12:17:57;5.40;76.40
21033;DHT22;10675;47.976;7.824;2023-02-28T12:20:36;5.40;76.60
21033;DHT22;10675;47.976;7.824;2023-02-28T12:23:26;5.40;77.10
21033;DHT22;10675;47.976;7.824;2023-02-28T12:26:10;5.50;76.40
21033;DHT22;10675;47.976;7.824;2023-02-28T12:28:57;5.40;75.70
21033;DHT22;10675;47.976;7.824;2023-02-28T12:31:32;5.40;77.00
21033;DHT22;10675;47.976;7.824;2023-02-28T12:34:04;5.40;76.70
21033;DHT22;10675;47.976;7.824;2023-02-28T12:36:31;5.30;76.30
21033;DHT22;10675;47.976;7.824;2023-02-28T12:41:38;5.50;75.90
21033;DHT22;10675;47.976;7.824;2023-02-28T12:44:12;5.60;75.70
21033;DHT22;10675;47.976;7.824;2023-02-28T12:46:46;5.50;75.70
21033;DHT22;10675;47.976;7.824;2023-02-28T12:49:30;5.50;76.20
21033;DHT22;10675;47.976;7.824;2023-02-28T12:51:58;5.70;76.80
21033;DHT22;10675;47.976;7.824;2023-02-28T12:54:38;5.50;75.80
21033;DHT22;10675;47.976;7.824;2023-02-28T12:57:23;5.50;75.30
21033;DHT22;10675;47.976;7.824;2023-02-28T12:59:54;5.50;76.10
21033;DHT22;10675;47.976;7.824;2023-02-28T13:05:49;5.70;76.10
21033;DHT22;10675;47.976;7.824;2023-02-28T13:11:31;5.50;75.60
21033;DHT22;10675;47.976;7.824;2023-02-28T13:14:03;5.60;75.40
21033;DHT22;10675;47.976;7.824;2023-02-28T13:19:58;5.80;75.60
21033;DHT22;10675;47.976;7.824;2023-02-28T13:24:53;5.90;75.10
21033;DHT22;10675;47.976;7.824;2023-02-28T13:27:34;5.90;75.50
21033;DHT22;10675;47.976;7.824;2023-02-28T13:30:02;5.80;74.80
21033;DHT22;10675;47.976;7.824;2023-02-28T13:35:45;5.90;75.70
21033;DHT22;10675;47.976;7.824;2023-02-28T13:38:32;6.00;75.10
21033;DHT22;10675;47.976;7.824;2023-02-28T13:44:21;6.00;75.20
21033;DHT22;10675;47.976;7.824;2023-02-28T13:57:50;5.80;75.80
21033;DHT22;10675;47.976;7.824;2023-02-28T14:03:21;5.90;74.00
21033;DHT22;10675;47.976;7.824;2023-02-28T14:06:22;5.80;75.60
21033;DHT22;10675;47.976;7.824;2023-02-28T14:09:05;5.70;75.50
21033;DHT22;10675;47.976;7.824;2023-02-28T14:11:34;5.70;76.10
21033;DHT22;10675;47.976;7.824;2023-02-28T14:14:01;5.70;75.90
21033;DHT22;10675;47.976;7.824;2023-02-28T14:16:48;5.70;75.50
21033;DHT22;10675;47.976;7.824;2023-02-28T14:19:17;5.60;75.30
21033;DHT22;10675;47.976;7.824;2023-02-28T14:22:21;5.60;75.90
21033;DHT22;10675;47.976;7.824;2023-02-28T14:25:18;5.70;76.60
21033;DHT22;10675;47.976;7.824;2023-02-28T14:28:14;5.90;76.00
21033;DHT22;10675;47.976;7.824;2023-02-28T14:30:57;5.90;75.90
21033;DHT22;10675;47.976;7.824;2023-02-28T14:33:33;5.80;75.40
21033;DHT22;10675;47.976;7.824;2023-02-28T14:36:38;5.70;76.10
21033;DHT22;10675;47.976;7.824;2023-02-28T14:41:34;5.70;76.20
21033;DHT22;10675;47.976;7.824;2023-02-28T14:44:11;5.80;76.70
21033;DHT22;10675;47.976;7.824;2023-02-28T14:46:40;5.80;75.30
21033;DHT22;10675;47.976;7.824;2023-02-28T14:49:12;5.70;75.90
21033;DHT22;10675;47.976;7.824;2023-02-28T14:51:38;5.70;75.60
21033;DHT22;10675;47.976;7.824;2023-02-28T14:54:04;5.60;76.90
21033;DHT22;10675;47.976;7.824;2023-02-28T14:56:36;5.50;75.70
21033;DHT22;10675;47.976;7.824;2023-02-28T14:59:03;5.40;76.00
21033;DHT22;10675;47.976;7.824;2023-02-28T15:01:29;5.70;76.30
21033;DHT22;10675;47.976;7.824;2023-02-28T15:04:05;6.10;74.30
21033;DHT22;10675;47.976;7.824;2023-02-28T15:06:32;6.60;73.30
21033;DHT22;10675;47.976;7.824;2023-02-28T15:09:18;6.80;71.90
21033;DHT22;10675;47.976;7.824;2023-02-28T15:11:48;7.20;71.70
21033;DHT22;10675;47.976;7.824;2023-02-28T15:14:18;7.80;70.70
21033;DHT22;10675;47.976;7.824;2023-02-28T15:16:46;8.10;68.30
21033;DHT22;10675;47.976;7.824;2023-02-28T15:19:31;7.90;69.60
21033;DHT22;10675;47.976;7.824;2023-02-28T15:22:06;8.10;68.20
21033;DHT22;10675;47.976;7.824;2023-02-28T15:24:46;8.40;67.70
21033;DHT22;10675;47.976;7.824;2023-02-28T15:27:23;8.00;67.50
21033;DHT22;10675;47.976;7.824;2023-02-28T15:29:55;7.90;68.80
21033;DHT22;10675;47.976;7.824;2023-02-28T15:32:31;7.80;68.60
21033;DHT22;10675;47.976;7.824;2023-02-28T15:34:59;7.40;68.50
21033;DHT22;10675;47.976;7.824;2023-02-28T15:37:53;7.10;69.90
21033;DHT22;10675;47.976;7.824;2023-02-28T15:40:26;6.80;70.60
21033;DHT22;10675;47.976;7.824;2023-02-28T15:45:32;6.50;70.70
21033;DHT22;10675;47.976;7.824;2023-02-28T15:48:00;6.70;70.70
21033;DHT22;10675;47.976;7.824;2023-02-28T15:50:27;6.70;71.10
21033;DHT22;10675;47.976;7.824;2023-02-28T15:52:53;6.50;71.10
21033;DHT22;10675;47.976;7.824;2023-02-28T15:55:21;6.10;72.30
21033;DHT22;10675;47.976;7.824;2023-02-28T15:57:51;5.90;72.70
21033;DHT22;10675;47.976;7.824;2023-02-28T16:00:23;5.50;73.80
21033;DHT22;10675;47.976;7.824;2023-02-28T16:02:49;5.30;74.60
21033;DHT22;10675;47.976;7.824;2023-02-28T16:05:25;5.30;75.30
21033;DHT22;10675;47.976;7.824;2023-02-28T16:07:57;5.20;75.70
21033;DHT22;10675;47.976;7.824;2023-02-28T16:10:25;5.10;75.50
21033;DHT22;10675;47.976;7.824;2023-02-28T16:12:56;4.50;75.60
21033;DHT22;10675;47.976;7.824;2023-02-28T16:15:25;4.90;76.80
21033;DHT22;10675;47.976;7.824;2023-02-28T16:17:52;4.90;76.90
21033;DHT22;10675;47.976;7.824;2023-02-28T16:20:23;4.90;76.70
21033;DHT22;10675;47.976;7.824;2023-02-28T16:22:49;4.90;76.60
21033;DHT22;10675;47.976;7.824;2023-02-28T16:25:17;4.90;76.90
21033;DHT22;10675;47.976;7.824;2023-02-28T16:27:46;4.90;76.80
21033;DHT22;10675;47.976;7.824;2023-02-28T16:30:20;4.90;77.00
21033;DHT22;10675;47.976;7.824;2023-02-28T16:32:46;5.10;77.70
21033;DHT22;10675;47.976;7.824;2023-02-28T16:35:12;5.20;77.50
21033;DHT22;10675;47.976;7.824;2023-02-28T16:37:39;5.30;76.40
21033;DHT22;10675;47.976;7.824;2023-02-28T16:40:05;5.00;76.60
21033;DHT22;10675;47.976;7.824;2023-02-28T16:42:31;5.00;77.40
21033;DHT22;10675;47.976;7.824;2023-02-28T16:44:57;4.90;77.20
21033;DHT22;10675;47.976;7.824;2023-02-28T16:47:23;4.80;77.60
21033;DHT22;10675;47.976;7.824;2023-02-28T16:49:49;4.70;77.70
21033;DHT22;10675;47.976;7.824;2023-02-28T16:52:15;4.70;77.90
21033;DHT22;10675;47.976;7.824;2023-02-28T16:54:41;4.60;78.20
21033;DHT22;10675;47.976;7.824;2023-02-28T16:57:17;4.40;78.40
21033;DHT22;10675;47.976;7.824;2023-02-28T16:59:45;4.40;80.30
21033;DHT22;10675;47.976;7.824;2023-02-28T17:02:18;4.40;79.10
21033;DHT22;10675;47.976;7.824;2023-02-28T17:04:46;4.30;78.80
21033;DHT22;10675;47.976;7.824;2023-02-28T17:07:14;4.30;80.20
21033;DHT22;10675;47.976;7.824;2023-02-28T17:09:41;4.20;79.80
21033;DHT22;10675;47.976;7.824;2023-02-28T17:12:07;4.10;79.60
21033;DHT22;10675;47.976;7.824;2023-02-28T17:14:33;4.00;79.50
21033;DHT22;10675;47.976;7.824;2023-02-28T17:16:58;4.00;80.10
21033;DHT22;10675;47.976;7.824;2023-02-28T17:19:24;4.00;79.80
21033;DHT22;10675;47.976;7.824;2023-02-28T17:21:49;3.90;79.60
21033;DHT22;10675;47.976;7.824;2023-02-28T17:24:15;3.90;80.10
21033;DHT22;10675;47.976;7.824;2023-02-28T17:26:41;3.80;79.90
21033;DHT22;10675;47.976;7.824;2023-02-28T17:29:18;3.80;80.30
21033;DHT22;10675;47.976;7.824;2023-02-28T17:31:44;3.80;80.30
21033;DHT22;10675;47.976;7.824;2023-02-28T17:34:10;3.80;80.50
21033;DHT22;10675;47.976;7.824;2023-02-28T17:36:37;3.70;81.20
21033;DHT22;10675;47.976;7.824;2023-02-28T17:39:04;3.60;81.10
21033;DHT22;10675;47.976;7.824;2023-02-28T17:41:34;3.60;81.90
21033;DHT22;10675;47.976;7.824;2023-02-28T17:43:59;3.50;82.80
21033;DHT22;10675;47.976;7.824;2023-02-28T17:46:25;3.50;83.10
21033;DHT22;10675;47.976;7.824;2023-02-28T17:48:52;3.50;83.50
21033;DHT22;10675;47.976;7.824;2023-02-28T17:51:20;3.30;85.00
21033;DHT22;10675;47.976;7.824;2023-02-28T17:53:46;3.20;86.70
21033;DHT22;10675;47.976;7.824;2023-02-28T17:56:23;3.10;86.70
21033;DHT22;10675;47.976;7.824;2023-02-28T17:58:50;3.00;86.70
21033;DHT22;10675;47.976;7.824;2023-02-28T18:01:17;3.00;86.90